Time;durP1;ratioP1;P1;durP2;ratioP2;P2;SDS_P1;SDS_P2;PMS_P1;PMS_P2;Temp;Humidity;BMP_temperature;BMP_pressure;BME280_temperature;BME280_humidity;BME280_pressure;Samples;Min_cycle;Max_cycle;Signal;HPM_P1;HPM_P2
2021/11/16 00:00:37;;;;;;;;;;;;;;;;;;2125871;27;19923;-47
2021/11/16 00:01:38;;;;;;;;;;;;;;;;;;2124131;28;20455;-48
2021/11/16 00:02:40;;;;;;;;;;;;;;;;;;2123047;27;19973;-47
2021/11/16 00:03:40;;;;;;;;;;;;;;;;;;2128702;27;19924;-48
2021/11/16 00:04:41;;;;;;;;;;;;;;;;;;2132680;27;19991;-48
2021/11/16 00:05:42;;;;;;;;;;;;;;;;;;2127850;27;19924;-48
2021/11/16 00:06:48;;;;;;;;;;;;;;;;;;2117643;27;20026;-48
2021/11/16 00:07:51;;;;;;;;;;;;;;;;;;2115723;28;20014;-48
2021/11/16 00:08:52;;;;;;;;;;;;;;;;;;2120224;27;20010;-50
2021/11/16 00:09:53;;;;;;;;;;;;;;;;;;2123936;28;19976;-48
2021/11/16 00:10:54;;;;;;;;;;;;;;;;;;2124019;28;19927;-48
2021/11/16 00:11:55;;;;;;;;;;;;;;;;;;2120272;27;19924;-48
2021/11/16 00:12:57;;;;;;;;;;;;;;;;;;2124142;28;19923;-49
2021/11/16 00:13:58;;;;;;;;;;;;;;;;;;2123944;28;19923;-48
2021/11/16 00:15:00;;;;;;;;;;;;;;;;;;2124595;27;20010;-49
2021/11/16 00:16:00;;;;;;;;;;;;;;;;;;2132734;27;20325;-48
2021/11/16 00:17:01;;;;;;;;;;;;;;;;;;2131484;27;19942;-47
2021/11/16 00:18:02;;;;;;;;;;;;;;;;;;2125423;27;19931;-47
2021/11/16 00:19:06;;;;;;;;;;;;;;;;;;2123877;28;19938;-48
2021/11/16 00:20:09;;;;;;;;;;;;;;;;;;2123357;28;19928;-47
2021/11/16 00:21:12;;;;;;;;;;;;;;;;;;2126418;27;19930;-48
2021/11/16 00:22:17;;;;;;;;;;;;;;;;;;2132670;27;20489;-50
2021/11/16 00:23:21;;;;;;;;;;;;;;;;;;2125662;27;20426;-49
2021/11/16 00:24:32;;;;;;;;;;;;;;;;;;2117277;28;20497;-47
2021/11/16 00:25:34;;;;;;;;;;;;;;;;;;2115509;28;20019;-50
2021/11/16 00:26:35;;;;;;;;;;;;;;;;;;2122581;27;19923;-48
2021/11/16 00:27:36;;;;;;;;;;;;;;;;;;2116165;28;20365;-48
2021/11/16 00:28:36;;;;;;;;;;;;;;;;;;2115446;28;19975;-48
2021/11/16 00:29:38;;;;;;;;;;;;;;;;;;2121766;27;20080;-48
2021/11/16 00:30:39;;;;;;;;;;;;;;;;;;2115381;28;19923;-47
2021/11/16 00:31:40;;;;;;;;;;;;;;;;;;2115517;28;19953;-47
2021/11/16 00:32:40;;;;;;;;;;;;;;;;;;2120132;28;19923;-48
2021/11/16 00:33:41;;;;;;;;;;;;;;;;;;2115429;28;19931;-48
2021/11/16 00:34:42;;;;;;;;;;;;;;;;;;2115375;28;19924;-48
2021/11/16 00:35:43;;;;;;;;;;;;;;;;;;2121116;27;19927;-48
2021/11/16 00:36:44;;;;;;;;;;;;;;;;;;2123880;27;20014;-48
2021/11/16 00:37:45;;;;;;;;;;;;;;;;;;2122928;28;19924;-49
2021/11/16 00:38:45;;;;;;;;;;;;;;;;;;2121977;27;19931;-48
2021/11/16 00:39:46;;;;;;;;;;;;;;;;;;2123845;28;19923;-49
2021/11/16 00:40:47;;;;;;;;;;;;;;;;;;2123432;28;19928;-49
2021/11/16 00:41:49;;;;;;;;;;;;;;;;;;2121712;27;19931;-48
2021/11/16 00:42:51;;;;;;;;;;;;;;;;;;2123834;28;19931;-51
2021/11/16 00:43:52;;;;;;;;;;;;;;;;;;2121613;28;20387;-48
2021/11/16 00:44:53;;;;;;;;;;;;;;;;;;2119131;28;19924;-48
2021/11/16 00:45:54;;;;;;;;;;;;;;;;;;2115391;28;19928;-50
2021/11/16 00:46:54;;;;;;;;;;;;;;;;;;2116142;28;19931;-47
2021/11/16 00:47:55;;;;;;;;;;;;;;;;;;2122487;27;19924;-50
2021/11/16 00:48:56;;;;;;;;;;;;;;;;;;2115327;28;19924;-48
2021/11/16 00:49:57;;;;;;;;;;;;;;;;;;2116984;27;20360;-51
2021/11/16 00:50:58;;;;;;;;;;;;;;;;;;2122794;27;19927;-48
2021/11/16 00:51:58;;;;;;;;;;;;;;;;;;2123861;28;19924;-48
2021/11/16 00:52:59;;;;;;;;;;;;;;;;;;2122921;27;20284;-49
2021/11/16 00:54:00;;;;;;;;;;;;;;;;;;2129719;27;19977;-48
2021/11/16 00:55:01;;;;;;;;;;;;;;;;;;2132361;27;19923;-48
2021/11/16 00:56:02;;;;;;;;;;;;;;;;;;2126858;27;19935;-48
2021/11/16 00:57:04;;;;;;;;;;;;;;;;;;2122379;28;20034;-48
2021/11/16 00:58:05;;;;;;;;;;;;;;;;;;2123707;28;19966;-47
2021/11/16 00:59:06;;;;;;;;;;;;;;;;;;2121191;27;19930;-49
2021/11/16 01:00:06;;;;;;;;;;;;;;;;;;2122725;28;20292;-48
2021/11/16 01:01:07;;;;;;;;;;;;;;;;;;2123826;28;19950;-50
2021/11/16 01:02:08;;;;;;;;;;;;;;;;;;2121665;27;19923;-48
2021/11/16 01:03:09;;;;;;;;;;;;;;;;;;2122103;28;19927;-48
2021/11/16 01:04:10;;;;;;;;;;;;;;;;;;2123624;28;19930;-48
2021/11/16 01:05:12;;;;;;;;;;;;;;;;;;2124729;27;19927;-48
2021/11/16 01:06:13;;;;;;;;;;;;;;;;;;2115506;28;19963;-47
2021/11/16 01:07:14;;;;;;;;;;;;;;;;;;2115211;28;20002;-48
2021/11/16 01:08:14;;;;;;;;;;;;;;;;;;2120128;27;19976;-48
2021/11/16 01:09:16;;;;;;;;;;;;;;;;;;2123550;28;19946;-48
2021/11/16 01:10:17;;;;;;;;;;;;;;;;;;2123790;28;20018;-47
2021/11/16 01:11:18;;;;;;;;;;;;;;;;;;2124592;27;20014;-48
2021/11/16 01:12:18;;;;;;;;;;;;;;;;;;2123693;28;20030;-48
2021/11/16 01:13:20;;;;;;;;;;;;;;;;;;2123664;28;19923;-48
2021/11/16 01:14:21;;;;;;;;;;;;;;;;;;2120594;27;19924;-48
2021/11/16 01:15:22;;;;;;;;;;;;;;;;;;2123567;28;19930;-49
2021/11/16 01:16:22;;;;;;;;;;;;;;;;;;2123166;28;20018;-48
2021/11/16 01:17:23;;;;;;;;;;;;;;;;;;2122670;27;19928;-48
2021/11/16 01:18:24;;;;;;;;;;;;;;;;;;2114992;28;19923;-47
2021/11/16 01:19:25;;;;;;;;;;;;;;;;;;2115951;28;20234;-49
2021/11/16 01:20:26;;;;;;;;;;;;;;;;;;2121899;27;19938;-47
2021/11/16 01:21:27;;;;;;;;;;;;;;;;;;2123587;28;20394;-47
2021/11/16 01:22:28;;;;;;;;;;;;;;;;;;2122330;28;19928;-49
2021/11/16 01:23:29;;;;;;;;;;;;;;;;;;2122469;27;19923;-48
2021/11/16 01:24:30;;;;;;;;;;;;;;;;;;2123642;28;20000;-47
2021/11/16 01:25:33;;;;;;;;;;;;;;;;;;2121848;27;20329;-49
2021/11/16 01:26:35;;;;;;;;;;;;;;;;;;2119725;27;19989;-47
2021/11/16 01:27:36;;;;;;;;;;;;;;;;;;2115099;28;20014;-48
2021/11/16 01:28:37;;;;;;;;;;;;;;;;;;2116880;27;20056;-48
2021/11/16 01:29:40;;;;;;;;;;;;;;;;;;2119643;27;19928;-48
2021/11/16 01:30:43;;;;;;;;;;;;;;;;;;2114998;28;19923;-47
2021/11/16 01:31:43;;;;;;;;;;;;;;;;;;2116823;28;20443;-47
2021/11/16 01:32:47;;;;;;;;;;;;;;;;;;2123227;28;20011;-48
2021/11/16 01:33:53;;;;;;;;;;;;;;;;;;2123458;28;19970;-48
2021/11/16 01:34:54;;;;;;;;;;;;;;;;;;2121419;27;20014;-48
2021/11/16 01:35:55;;;;;;;;;;;;;;;;;;2123356;28;19923;-48
2021/11/16 01:36:56;;;;;;;;;;;;;;;;;;2123459;28;19923;-48
2021/11/16 01:37:57;;;;;;;;;;;;;;;;;;2124013;27;20352;-49
2021/11/16 01:38:59;;;;;;;;;;;;;;;;;;2115114;28;19923;-48
2021/11/16 01:40:00;;;;;;;;;;;;;;;;;;2114937;28;19972;-47
2021/11/16 01:41:01;;;;;;;;;;;;;;;;;;2122468;27;19962;-47
2021/11/16 01:42:02;;;;;;;;;;;;;;;;;;2123533;28;20002;-47
2021/11/16 01:43:03;;;;;;;;;;;;;;;;;;2121617;27;20034;-48
2021/11/16 01:44:18;;;;;;;;;;;;;;;;;;2116079;28;20018;-47
2021/11/16 01:45:19;;;;;;;;;;;;;;;;;;2114960;28;19924;-49
2021/11/16 01:46:20;;;;;;;;;;;;;;;;;;2121037;27;19984;-48
2021/11/16 01:47:21;;;;;;;;;;;;;;;;;;2116524;27;19930;-48
2021/11/16 01:48:24;;;;;;;;;;;;;;;;;;2114850;28;19930;-48
2021/11/16 01:49:25;;;;;;;;;;;;;;;;;;2119381;27;20014;-47
2021/11/16 01:50:26;;;;;;;;;;;;;;;;;;2123250;28;20030;-48
2021/11/16 01:51:27;;;;;;;;;;;;;;;;;;2123330;28;19957;-48
2021/11/16 01:52:28;;;;;;;;;;;;;;;;;;2121790;27;19927;-49
2021/11/16 01:53:29;;;;;;;;;;;;;;;;;;2132046;27;19923;-47
2021/11/16 01:54:29;;;;;;;;;;;;;;;;;;2131865;27;19923;-48
2021/11/16 01:55:30;;;;;;;;;;;;;;;;;;2125277;27;20025;-48
2021/11/16 01:56:31;;;;;;;;;;;;;;;;;;2123349;28;19923;-48
2021/11/16 01:57:32;;;;;;;;;;;;;;;;;;2123442;28;19945;-48
2021/11/16 01:58:33;;;;;;;;;;;;;;;;;;2123032;27;19930;-48
2021/11/16 01:59:33;;;;;;;;;;;;;;;;;;2114852;28;19949;-48
2021/11/16 02:00:34;;;;;;;;;;;;;;;;;;2114755;28;19945;-48
2021/11/16 02:01:35;;;;;;;;;;;;;;;;;;2124764;27;19923;-48
2021/11/16 02:02:36;;;;;;;;;;;;;;;;;;2123280;28;19923;-47
2021/11/16 02:03:37;;;;;;;;;;;;;;;;;;2115292;28;19954;-49
2021/11/16 02:04:38;;;;;;;;;;;;;;;;;;2118997;28;19930;-48
2021/11/16 02:05:39;;;;;;;;;;;;;;;;;;2114752;28;19924;-47
2021/11/16 02:06:39;;;;;;;;;;;;;;;;;;2115730;28;19931;-47
2021/11/16 02:07:40;;;;;;;;;;;;;;;;;;2121657;27;20385;-48
2021/11/16 02:08:41;;;;;;;;;;;;;;;;;;2123439;28;20380;-49
2021/11/16 02:09:43;;;;;;;;;;;;;;;;;;2121759;28;19972;-48
2021/11/16 02:10:44;;;;;;;;;;;;;;;;;;2122703;27;19928;-48
2021/11/16 02:11:45;;;;;;;;;;;;;;;;;;2123304;28;20435;-48
2021/11/16 02:12:46;;;;;;;;;;;;;;;;;;2121885;27;20398;-48
2021/11/16 02:13:47;;;;;;;;;;;;;;;;;;2122101;27;19924;-48
2021/11/16 02:14:48;;;;;;;;;;;;;;;;;;2123405;28;19962;-47
2021/11/16 02:15:48;;;;;;;;;;;;;;;;;;2122496;27;19923;-49
2021/11/16 02:16:49;;;;;;;;;;;;;;;;;;2131759;27;19931;-43
2021/11/16 02:17:50;;;;;;;;;;;;;;;;;;2131761;27;19923;-43
2021/11/16 02:18:51;;;;;;;;;;;;;;;;;;2126185;27;20368;-43
2021/11/16 02:19:52;;;;;;;;;;;;;;;;;;2114969;28;20364;-43
2021/11/16 02:20:53;;;;;;;;;;;;;;;;;;2114624;28;20292;-43
2021/11/16 02:21:53;;;;;;;;;;;;;;;;;;2119549;27;19935;-43
2021/11/16 02:22:54;;;;;;;;;;;;;;;;;;2123313;28;19934;-43
2021/11/16 02:23:55;;;;;;;;;;;;;;;;;;2123320;28;20339;-43
2021/11/16 02:24:56;;;;;;;;;;;;;;;;;;2121854;27;20354;-43
2021/11/16 02:25:57;;;;;;;;;;;;;;;;;;2114662;28;19931;-43
2021/11/16 02:26:58;;;;;;;;;;;;;;;;;;2114662;28;19972;-43
2021/11/16 02:27:58;;;;;;;;;;;;;;;;;;2122525;27;19923;-43
2021/11/16 02:28:59;;;;;;;;;;;;;;;;;;2131951;27;20291;-43
2021/11/16 02:30:00;;;;;;;;;;;;;;;;;;2130496;27;19927;-43
2021/11/16 02:31:01;;;;;;;;;;;;;;;;;;2121341;27;20376;-43
2021/11/16 02:32:02;;;;;;;;;;;;;;;;;;2123079;28;19928;-43
2021/11/16 02:33:03;;;;;;;;;;;;;;;;;;2122821;28;20421;-43
2021/11/16 02:34:03;;;;;;;;;;;;;;;;;;2119614;28;20021;-43
2021/11/16 02:35:04;;;;;;;;;;;;;;;;;;2114845;28;20364;-43
2021/11/16 02:36:05;;;;;;;;;;;;;;;;;;2115639;28;19930;-43
2021/11/16 02:37:06;;;;;;;;;;;;;;;;;;2126360;27;19930;-43
2021/11/16 02:38:07;;;;;;;;;;;;;;;;;;2131789;27;19927;-43
2021/11/16 02:39:09;;;;;;;;;;;;;;;;;;2127348;27;19950;-43
2021/11/16 02:40:09;;;;;;;;;;;;;;;;;;2117785;28;19939;-43
2021/11/16 02:41:10;;;;;;;;;;;;;;;;;;2114694;28;19931;-43
2021/11/16 02:42:11;;;;;;;;;;;;;;;;;;2115944;28;19934;-43
2021/11/16 02:43:12;;;;;;;;;;;;;;;;;;2117779;28;19923;-44
2021/11/16 02:44:17;;;;;;;;;;;;;;;;;;2114907;28;19923;-43
2021/11/16 02:45:17;;;;;;;;;;;;;;;;;;2116916;28;19924;-43
2021/11/16 02:46:18;;;;;;;;;;;;;;;;;;2129990;27;19990;-43
2021/11/16 02:47:19;;;;;;;;;;;;;;;;;;2131613;27;19942;-43
2021/11/16 02:48:20;;;;;;;;;;;;;;;;;;2124118;27;19930;-43
2021/11/16 02:49:21;;;;;;;;;;;;;;;;;;2116219;28;20414;-43
2021/11/16 02:50:22;;;;;;;;;;;;;;;;;;2114556;28;19949;-43
2021/11/16 02:51:23;;;;;;;;;;;;;;;;;;2118449;27;19979;-43
2021/11/16 02:52:24;;;;;;;;;;;;;;;;;;2122718;28;19923;-43
2021/11/16 02:53:24;;;;;;;;;;;;;;;;;;2123189;28;19935;-43
2021/11/16 02:54:26;;;;;;;;;;;;;;;;;;2120727;27;19923;-42
2021/11/16 02:55:26;;;;;;;;;;;;;;;;;;2122936;28;19923;-43
2021/11/16 02:56:27;;;;;;;;;;;;;;;;;;2123059;28;19924;-43
2021/11/16 02:57:28;;;;;;;;;;;;;;;;;;2123921;27;20007;-44
2021/11/16 02:58:29;;;;;;;;;;;;;;;;;;2114528;28;19924;-43
2021/11/16 02:59:30;;;;;;;;;;;;;;;;;;2114455;28;19930;-43
2021/11/16 03:00:30;;;;;;;;;;;;;;;;;;2123286;27;19938;-43
2021/11/16 03:01:31;;;;;;;;;;;;;;;;;;2115993;28;19988;-43
2021/11/16 03:02:32;;;;;;;;;;;;;;;;;;2116016;28;19930;-44
2021/11/16 03:03:33;;;;;;;;;;;;;;;;;;2122694;27;20375;-43
2021/11/16 03:04:34;;;;;;;;;;;;;;;;;;2133176;27;19927;-43
2021/11/16 03:05:35;;;;;;;;;;;;;;;;;;2132187;27;19923;-43
2021/11/16 03:06:36;;;;;;;;;;;;;;;;;;2122394;27;20002;-43
2021/11/16 03:07:39;;;;;;;;;;;;;;;;;;2124541;28;20279;-43
2021/11/16 03:08:40;;;;;;;;;;;;;;;;;;2123904;28;20451;-43
2021/11/16 03:09:41;;;;;;;;;;;;;;;;;;2123359;27;19931;-43
2021/11/16 03:10:41;;;;;;;;;;;;;;;;;;2115914;28;19924;-43
2021/11/16 03:11:42;;;;;;;;;;;;;;;;;;2116943;28;20002;-43
2021/11/16 03:12:43;;;;;;;;;;;;;;;;;;2123181;27;19923;-43
2021/11/16 03:13:44;;;;;;;;;;;;;;;;;;2124588;28;19934;-43
2021/11/16 03:14:45;;;;;;;;;;;;;;;;;;2122623;27;20026;-43
2021/11/16 03:15:46;;;;;;;;;;;;;;;;;;2123823;27;20057;-43
2021/11/16 03:16:47;;;;;;;;;;;;;;;;;;2124632;28;19923;-43
2021/11/16 03:17:48;;;;;;;;;;;;;;;;;;2123245;27;20020;-43
2021/11/16 03:18:48;;;;;;;;;;;;;;;;;;2123139;27;19924;-43
2021/11/16 03:19:49;;;;;;;;;;;;;;;;;;2124255;28;20380;-43
2021/11/16 03:20:50;;;;;;;;;;;;;;;;;;2122313;27;20380;-43
2021/11/16 03:21:55;;;;;;;;;;;;;;;;;;2120236;27;19953;-43
2021/11/16 03:22:58;;;;;;;;;;;;;;;;;;2115940;28;19924;-43
2021/11/16 03:23:59;;;;;;;;;;;;;;;;;;2119638;27;20014;-43
2021/11/16 03:25:00;;;;;;;;;;;;;;;;;;2123319;28;20380;-43
2021/11/16 03:26:03;;;;;;;;;;;;;;;;;;2124451;28;19924;-43
2021/11/16 03:27:08;;;;;;;;;;;;;;;;;;2121979;27;20017;-43
2021/11/16 03:28:11;;;;;;;;;;;;;;;;;;2124499;28;19962;-43
2021/11/16 03:29:12;;;;;;;;;;;;;;;;;;2124339;28;20443;-43
2021/11/16 03:30:13;;;;;;;;;;;;;;;;;;2121936;27;20428;-43
2021/11/16 03:31:20;;;;;;;;;;;;;;;;;;2124271;28;19928;-43
2021/11/16 03:32:20;;;;;;;;;;;;;;;;;;2124021;28;19972;-43
2021/11/16 03:33:21;;;;;;;;;;;;;;;;;;2124285;27;20399;-43
2021/11/16 03:34:26;;;;;;;;;;;;;;;;;;2115876;28;20066;-43
2021/11/16 03:35:27;;;;;;;;;;;;;;;;;;2116607;28;19924;-43
2021/11/16 03:36:28;;;;;;;;;;;;;;;;;;2128280;27;20282;-43
2021/11/16 03:37:29;;;;;;;;;;;;;;;;;;2132726;27;19923;-44
2021/11/16 03:38:30;;;;;;;;;;;;;;;;;;2128269;27;20238;-43
2021/11/16 03:39:31;;;;;;;;;;;;;;;;;;2122424;27;19924;-43
2021/11/16 03:40:32;;;;;;;;;;;;;;;;;;2115853;28;19924;-44
2021/11/16 03:41:33;;;;;;;;;;;;;;;;;;2118008;27;20410;-43
2021/11/16 03:42:33;;;;;;;;;;;;;;;;;;2120880;27;19945;-43
2021/11/16 03:43:34;;;;;;;;;;;;;;;;;;2115848;28;19927;-43
2021/11/16 03:44:36;;;;;;;;;;;;;;;;;;2118379;28;19923;-43
2021/11/16 03:45:36;;;;;;;;;;;;;;;;;;2129717;27;20017;-43
2021/11/16 03:46:37;;;;;;;;;;;;;;;;;;2132784;27;19923;-43
2021/11/16 03:47:38;;;;;;;;;;;;;;;;;;2126854;27;19972;-43
2021/11/16 03:48:39;;;;;;;;;;;;;;;;;;2123950;28;19923;-43
2021/11/16 03:49:40;;;;;;;;;;;;;;;;;;2124164;28;19923;-43
2021/11/16 03:50:41;;;;;;;;;;;;;;;;;;2122104;28;19967;-43
2021/11/16 03:51:43;;;;;;;;;;;;;;;;;;2116913;28;20352;-43
2021/11/16 03:52:48;;;;;;;;;;;;;;;;;;2115630;28;20055;-43
2021/11/16 03:53:49;;;;;;;;;;;;;;;;;;2121688;27;19967;-43
2021/11/16 03:54:50;;;;;;;;;;;;;;;;;;2115770;28;20395;-43
2021/11/16 03:55:51;;;;;;;;;;;;;;;;;;2115619;28;19924;-43
2021/11/16 03:56:52;;;;;;;;;;;;;;;;;;2120794;27;19927;-43
2021/11/16 03:57:55;;;;;;;;;;;;;;;;;;2124174;28;19954;-44
2021/11/16 03:58:56;;;;;;;;;;;;;;;;;;2124199;28;20034;-43
2021/11/16 03:59:56;;;;;;;;;;;;;;;;;;2119315;28;20284;-43
2021/11/16 04:00:57;;;;;;;;;;;;;;;;;;2115624;28;20293;-43
2021/11/16 04:01:58;;;;;;;;;;;;;;;;;;2115704;28;20284;-43
2021/11/16 04:03:00;;;;;;;;;;;;;;;;;;2120134;27;19923;-43
2021/11/16 04:04:01;;;;;;;;;;;;;;;;;;2115678;28;19950;-43
2021/11/16 04:05:04;;;;;;;;;;;;;;;;;;2116483;28;19969;-43
2021/11/16 04:06:06;;;;;;;;;;;;;;;;;;2122655;27;19923;-43
2021/11/16 04:07:06;;;;;;;;;;;;;;;;;;2124019;28;20006;-43
2021/11/16 04:08:07;;;;;;;;;;;;;;;;;;2121230;28;19980;-43
2021/11/16 04:09:08;;;;;;;;;;;;;;;;;;2122909;27;19923;-43
2021/11/16 04:10:11;;;;;;;;;;;;;;;;;;2115727;28;20046;-43
2021/11/16 04:11:12;;;;;;;;;;;;;;;;;;2117762;27;19927;-43
2021/11/16 04:12:13;;;;;;;;;;;;;;;;;;2121770;27;20019;-43
2021/11/16 04:13:14;;;;;;;;;;;;;;;;;;2124444;28;20403;-43
2021/11/16 04:14:14;;;;;;;;;;;;;;;;;;2122091;28;19927;-43
2021/11/16 04:15:15;;;;;;;;;;;;;;;;;;2130318;27;20123;-43
2021/11/16 04:16:16;;;;;;;;;;;;;;;;;;2132690;27;20006;-43
2021/11/16 04:17:17;;;;;;;;;;;;;;;;;;2126922;27;20073;-43
2021/11/16 04:18:18;;;;;;;;;;;;;;;;;;2122526;28;19930;-43
2021/11/16 04:19:19;;;;;;;;;;;;;;;;;;2123982;28;20406;-43
2021/11/16 04:20:19;;;;;;;;;;;;;;;;;;2121910;28;19940;-43
2021/11/16 04:21:20;;;;;;;;;;;;;;;;;;2131816;27;20284;-43
2021/11/16 04:22:21;;;;;;;;;;;;;;;;;;2132473;27;20403;-43
2021/11/16 04:23:22;;;;;;;;;;;;;;;;;;2124448;27;19923;-43
2021/11/16 04:24:23;;;;;;;;;;;;;;;;;;2122827;28;20018;-43
2021/11/16 04:25:24;;;;;;;;;;;;;;;;;;2124072;28;20399;-43
2021/11/16 04:26:25;;;;;;;;;;;;;;;;;;2125227;27;19983;-43
2021/11/16 04:27:26;;;;;;;;;;;;;;;;;;2123779;28;20010;-43
2021/11/16 04:28:27;;;;;;;;;;;;;;;;;;2124065;28;20387;-43
2021/11/16 04:29:28;;;;;;;;;;;;;;;;;;2122630;27;19996;-43
2021/11/16 04:30:29;;;;;;;;;;;;;;;;;;2124015;28;19924;-43
2021/11/16 04:31:30;;;;;;;;;;;;;;;;;;2123860;28;19962;-43
2021/11/16 04:32:30;;;;;;;;;;;;;;;;;;2124104;27;19930;-44
2021/11/16 04:33:31;;;;;;;;;;;;;;;;;;2115339;28;20380;-43
2021/11/16 04:34:32;;;;;;;;;;;;;;;;;;2115551;28;19955;-44
2021/11/16 04:35:33;;;;;;;;;;;;;;;;;;2122512;27;19974;-43
2021/11/16 04:36:34;;;;;;;;;;;;;;;;;;2115508;28;19924;-44
2021/11/16 04:37:35;;;;;;;;;;;;;;;;;;2115620;28;19928;-43
2021/11/16 04:38:36;;;;;;;;;;;;;;;;;;2121811;27;19959;-43
2021/11/16 04:39:37;;;;;;;;;;;;;;;;;;2123770;28;19923;-44
2021/11/16 04:40:39;;;;;;;;;;;;;;;;;;2122947;28;19975;-44
2021/11/16 04:41:40;;;;;;;;;;;;;;;;;;2123434;27;19927;-44
2021/11/16 04:42:40;;;;;;;;;;;;;;;;;;2123743;28;20265;-43
2021/11/16 04:43:41;;;;;;;;;;;;;;;;;;2122549;28;19961;-43
2021/11/16 04:44:43;;;;;;;;;;;;;;;;;;2122952;27;19930;-43
2021/11/16 04:45:47;;;;;;;;;;;;;;;;;;2123963;28;20014;-43
2021/11/16 04:46:49;;;;;;;;;;;;;;;;;;2122553;27;20435;-43
2021/11/16 04:47:52;;;;;;;;;;;;;;;;;;2123536;27;20010;-43
2021/11/16 04:48:59;;;;;;;;;;;;;;;;;;2123824;28;20475;-43
2021/11/16 04:50:07;;;;;;;;;;;;;;;;;;2123199;27;20376;-43
2021/11/16 04:51:39;;;;;;;;;;;;;;;;;;2122951;28;20451;-43
2021/11/16 04:52:50;;;;;;;;;;;;;;;;;;2122086;27;20227;-43
2021/11/16 04:54:08;;;;;;;;;;;;;;;;;;2129941;27;20423;-43
2021/11/16 04:55:29;;;;;;;;;;;;;;;;;;2132471;27;20014;-43
2021/11/16 05:03:10;;;;;;;;;;;;;;;;;;2087573;28;20011;-43
2021/11/16 05:04:10;;;;;;;;;;;;;;;;;;2115221;28;20326;-44
2021/11/16 05:05:12;;;;;;;;;;;;;;;;;;2119950;27;19928;-43
2021/11/16 05:06:13;;;;;;;;;;;;;;;;;;2123816;28;20002;-43
2021/11/16 05:07:16;;;;;;;;;;;;;;;;;;2123125;28;19976;-43
2021/11/16 05:08:17;;;;;;;;;;;;;;;;;;2122090;27;19970;-43
2021/11/16 05:09:17;;;;;;;;;;;;;;;;;;2123730;28;20380;-43
2021/11/16 05:10:19;;;;;;;;;;;;;;;;;;2123029;28;19923;-43
2021/11/16 05:11:20;;;;;;;;;;;;;;;;;;2122363;27;20418;-43
2021/11/16 05:12:21;;;;;;;;;;;;;;;;;;2115125;28;20108;-43
2021/11/16 05:13:22;;;;;;;;;;;;;;;;;;2116000;28;20003;-43
2021/11/16 05:14:22;;;;;;;;;;;;;;;;;;2122679;27;20429;-43
2021/11/16 05:15:23;;;;;;;;;;;;;;;;;;2123602;28;19927;-43
2021/11/16 05:16:24;;;;;;;;;;;;;;;;;;2121767;28;19924;-43
2021/11/16 05:17:25;;;;;;;;;;;;;;;;;;2121050;27;19992;-43
2021/11/16 05:18:26;;;;;;;;;;;;;;;;;;2115085;28;20003;-44
2021/11/16 05:19:28;;;;;;;;;;;;;;;;;;2116534;28;20070;-43
2021/11/16 05:20:29;;;;;;;;;;;;;;;;;;2122193;28;20308;-43
2021/11/16 05:21:30;;;;;;;;;;;;;;;;;;2123526;28;19927;-43
2021/11/16 05:22:31;;;;;;;;;;;;;;;;;;2122720;27;19939;-44
2021/11/16 05:23:36;;;;;;;;;;;;;;;;;;2122250;27;20236;-44
2021/11/16 05:24:37;;;;;;;;;;;;;;;;;;2123652;28;20022;-43
2021/11/16 05:25:38;;;;;;;;;;;;;;;;;;2124050;27;19923;-44
2021/11/16 05:26:38;;;;;;;;;;;;;;;;;;2116694;27;19924;-44
2021/11/16 05:27:39;;;;;;;;;;;;;;;;;;2114930;28;20284;-43
2021/11/16 05:28:40;;;;;;;;;;;;;;;;;;2122386;27;19976;-43
2021/11/16 05:29:41;;;;;;;;;;;;;;;;;;2115842;28;20369;-43
2021/11/16 05:30:42;;;;;;;;;;;;;;;;;;2115095;28;19924;-43
2021/11/16 05:31:42;;;;;;;;;;;;;;;;;;2119552;27;19924;-43
2021/11/16 05:32:43;;;;;;;;;;;;;;;;;;2123330;28;19927;-43
2021/11/16 05:33:44;;;;;;;;;;;;;;;;;;2123566;28;19988;-44
2021/11/16 05:34:46;;;;;;;;;;;;;;;;;;2124047;27;20323;-43
2021/11/16 05:35:47;;;;;;;;;;;;;;;;;;2115129;28;19974;-43
2021/11/16 05:36:48;;;;;;;;;;;;;;;;;;2115141;28;19923;-43
2021/11/16 05:37:49;;;;;;;;;;;;;;;;;;2122014;27;20448;-43
2021/11/16 05:38:50;;;;;;;;;;;;;;;;;;2123604;28;19931;-43
2021/11/16 05:39:51;;;;;;;;;;;;;;;;;;2122951;28;20273;-43
2021/11/16 05:40:51;;;;;;;;;;;;;;;;;;2122653;27;20390;-43
2021/11/16 05:41:52;;;;;;;;;;;;;;;;;;2123437;28;20014;-43
2021/11/16 05:42:53;;;;;;;;;;;;;;;;;;2122927;28;19923;-43
2021/11/16 05:43:54;;;;;;;;;;;;;;;;;;2121488;27;19934;-43
2021/11/16 05:44:55;;;;;;;;;;;;;;;;;;2123508;28;19927;-43
2021/11/16 05:45:56;;;;;;;;;;;;;;;;;;2122572;28;20416;-43
2021/11/16 05:46:57;;;;;;;;;;;;;;;;;;2121247;27;19924;-48
2021/11/16 05:47:58;;;;;;;;;;;;;;;;;;2114844;28;19962;-48
2021/11/16 05:48:58;;;;;;;;;;;;;;;;;;2115892;28;19931;-48
2021/11/16 05:49:59;;;;;;;;;;;;;;;;;;2122498;27;19923;-49
2021/11/16 05:51:00;;;;;;;;;;;;;;;;;;2123390;28;19923;-49
2021/11/16 05:52:01;;;;;;;;;;;;;;;;;;2121076;28;20466;-49
2021/11/16 05:53:02;;;;;;;;;;;;;;;;;;2128509;27;19975;-48
2021/11/16 05:54:03;;;;;;;;;;;;;;;;;;2131955;27;20380;-48
2021/11/16 05:55:03;;;;;;;;;;;;;;;;;;2127238;27;20057;-49
2021/11/16 05:56:05;;;;;;;;;;;;;;;;;;2123087;27;20295;-48
2021/11/16 05:57:06;;;;;;;;;;;;;;;;;;2123336;28;20018;-48
2021/11/16 05:58:07;;;;;;;;;;;;;;;;;;2123101;27;19931;-48
2021/11/16 05:59:07;;;;;;;;;;;;;;;;;;2124557;27;19980;-48
2021/11/16 06:00:08;;;;;;;;;;;;;;;;;;2123248;28;19923;-50
2021/11/16 06:01:09;;;;;;;;;;;;;;;;;;2122166;27;19930;-48
2021/11/16 06:02:10;;;;;;;;;;;;;;;;;;2122044;28;19927;-48
2021/11/16 06:03:11;;;;;;;;;;;;;;;;;;2121894;28;19924;-49
2021/11/16 06:04:12;;;;;;;;;;;;;;;;;;2124003;27;19927;-48
2021/11/16 06:05:12;;;;;;;;;;;;;;;;;;2116343;27;19924;-47
2021/11/16 06:06:13;;;;;;;;;;;;;;;;;;2114781;28;20338;-48
2021/11/16 06:07:14;;;;;;;;;;;;;;;;;;2120690;27;20001;-50
2021/11/16 06:08:15;;;;;;;;;;;;;;;;;;2115677;28;19959;-43
2021/11/16 06:09:16;;;;;;;;;;;;;;;;;;2115029;28;20030;-43
2021/11/16 06:10:17;;;;;;;;;;;;;;;;;;2122723;27;19923;-43
2021/11/16 06:11:18;;;;;;;;;;;;;;;;;;2114917;28;20014;-44
2021/11/16 06:12:19;;;;;;;;;;;;;;;;;;2114788;28;19949;-44
2021/11/16 06:13:19;;;;;;;;;;;;;;;;;;2118597;27;20429;-43
2021/11/16 06:14:20;;;;;;;;;;;;;;;;;;2123410;28;19955;-43
2021/11/16 06:15:21;;;;;;;;;;;;;;;;;;2123246;28;19945;-43
2021/11/16 06:16:22;;;;;;;;;;;;;;;;;;2121134;27;20280;-49
2021/11/16 06:17:23;;;;;;;;;;;;;;;;;;2123177;28;19934;-49
2021/11/16 06:18:24;;;;;;;;;;;;;;;;;;2122674;28;19928;-49
2021/11/16 06:19:25;;;;;;;;;;;;;;;;;;2121465;27;20492;-48
2021/11/16 06:20:26;;;;;;;;;;;;;;;;;;2123247;28;19923;-48
2021/11/16 06:21:27;;;;;;;;;;;;;;;;;;2122946;28;19923;-48
2021/11/16 06:22:28;;;;;;;;;;;;;;;;;;2122278;27;19928;-48
2021/11/16 06:23:28;;;;;;;;;;;;;;;;;;2114853;28;19928;-48
2021/11/16 06:24:29;;;;;;;;;;;;;;;;;;2114360;28;19928;-49
2021/11/16 06:25:30;;;;;;;;;;;;;;;;;;2124626;27;20272;-48
2021/11/16 06:26:32;;;;;;;;;;;;;;;;;;2131655;27;19961;-48
2021/11/16 06:27:33;;;;;;;;;;;;;;;;;;2128645;27;20467;-47
2021/11/16 06:28:35;;;;;;;;;;;;;;;;;;2126744;27;19972;-48
2021/11/16 06:29:36;;;;;;;;;;;;;;;;;;2131853;27;19923;-48
2021/11/16 06:30:37;;;;;;;;;;;;;;;;;;2127086;27;19927;-49
2021/11/16 06:31:38;;;;;;;;;;;;;;;;;;2121788;27;19931;-49
2021/11/16 06:32:39;;;;;;;;;;;;;;;;;;2123139;28;20395;-48
2021/11/16 06:33:40;;;;;;;;;;;;;;;;;;2121944;27;19928;-48
2021/11/16 06:34:41;;;;;;;;;;;;;;;;;;2121676;27;19930;-48
2021/11/16 06:35:44;;;;;;;;;;;;;;;;;;2124183;28;19952;-49
2021/11/16 06:36:47;;;;;;;;;;;;;;;;;;2125003;27;19977;-49
2021/11/16 06:37:48;;;;;;;;;;;;;;;;;;2117255;28;19924;-48
2021/11/16 06:38:49;;;;;;;;;;;;;;;;;;2116229;28;19978;-48
2021/11/16 06:39:50;;;;;;;;;;;;;;;;;;2119663;28;19957;-48
2021/11/16 06:40:50;;;;;;;;;;;;;;;;;;2117289;28;20085;-48
2021/11/16 06:41:51;;;;;;;;;;;;;;;;;;2116096;28;19927;-48
2021/11/16 06:42:53;;;;;;;;;;;;;;;;;;2124829;27;19939;-48
2021/11/16 06:43:54;;;;;;;;;;;;;;;;;;2116378;28;20456;-47
2021/11/16 06:44:55;;;;;;;;;;;;;;;;;;2116118;28;19973;-50
2021/11/16 06:45:56;;;;;;;;;;;;;;;;;;2122765;27;19923;-49
2021/11/16 06:46:57;;;;;;;;;;;;;;;;;;2116123;28;20510;-47
2021/11/16 06:47:57;;;;;;;;;;;;;;;;;;2116130;28;19931;-50
2021/11/16 06:48:58;;;;;;;;;;;;;;;;;;2122662;27;19923;-49
2021/11/16 06:49:59;;;;;;;;;;;;;;;;;;2124550;28;19924;-50
2021/11/16 06:51:00;;;;;;;;;;;;;;;;;;2124677;28;19923;-48
2021/11/16 06:52:01;;;;;;;;;;;;;;;;;;2122588;27;19930;-49
2021/11/16 06:53:02;;;;;;;;;;;;;;;;;;2124694;28;19923;-52
2021/11/16 06:54:03;;;;;;;;;;;;;;;;;;2124220;28;20391;-48
2021/11/16 06:55:05;;;;;;;;;;;;;;;;;;2122630;27;19935;-48
2021/11/16 06:56:05;;;;;;;;;;;;;;;;;;2124571;28;20424;-49
2021/11/16 06:57:06;;;;;;;;;;;;;;;;;;2124247;28;19976;-52
2021/11/16 06:58:07;;;;;;;;;;;;;;;;;;2122132;27;20282;-48
2021/11/16 06:59:08;;;;;;;;;;;;;;;;;;2116175;28;19928;-48
2021/11/16 07:00:09;;;;;;;;;;;;;;;;;;2115350;28;20410;-48
2021/11/16 07:01:10;;;;;;;;;;;;;;;;;;2127950;27;19934;-48
2021/11/16 07:02:11;;;;;;;;;;;;;;;;;;2132944;27;19930;-48
2021/11/16 07:03:12;;;;;;;;;;;;;;;;;;2125230;27;19928;-48
2021/11/16 07:04:12;;;;;;;;;;;;;;;;;;2123837;27;19930;-49
2021/11/16 07:05:13;;;;;;;;;;;;;;;;;;2124673;28;20003;-48
2021/11/16 07:06:14;;;;;;;;;;;;;;;;;;2123312;27;20150;-48